sensor_id;sensor_type;location;lat;lon;timestamp;P1;durP1;ratioP1;P2;durP2;ratioP2
49820;SDS011;36893;52.520;13.450;2023-03-01T00:02:01;10.20;;;3.50;;
49820;SDS011;36893;52.520;13.450;2023-03-01T00:12:02;9.47;;;3.97;;
49820;SDS011;36893;52.520;13.450;2023-03-01T00:22:04;16.98;;;3.35;;
49820;SDS011;36893;52.520;13.450;2023-03-01T00:32:04;7.93;;;3.67;;
49820;SDS011;36893;52.520;13.450;2023-03-01T00:42:05;7.73;;;3.87;;
49820;SDS011;36893;52.520;13.450;2023-03-01T00:52:07;11.82;;;3.10;;
49820;SDS011;36893;52.520;13.450;2023-03-01T01:02:07;11.67;;;3.60;;
49820;SDS011;36893;52.520;13.450;2023-03-01T01:12:08;6.63;;;2.93;;
49820;SDS011;36893;52.520;13.450;2023-03-01T01:22:09;8.60;;;2.60;;
49820;SDS011;36893;52.520;13.450;2023-03-01T01:32:09;9.30;;;3.22;;
49820;SDS011;36893;52.520;13.450;2023-03-01T01:42:16;6.70;;;2.77;;
49820;SDS011;36893;52.520;13.450;2023-03-01T01:52:29;4.40;;;2.13;;
49820;SDS011;36893;52.520;13.450;2023-03-01T02:02:35;9.50;;;2.60;;
49820;SDS011;36893;52.520;13.450;2023-03-01T02:12:36;9.60;;;3.15;;
49820;SDS011;36893;52.520;13.450;2023-03-01T02:22:39;7.82;;;3.22;;
49820;SDS011;36893;52.520;13.450;2023-03-01T02:32:43;10.93;;;3.08;;
49820;SDS011;36893;52.520;13.450;2023-03-01T02:42:47;4.20;;;2.05;;
49820;SDS011;36893;52.520;13.450;2023-03-01T03:03:28;5.75;;;2.40;;
49820;SDS011;36893;52.520;13.450;2023-03-01T03:13:28;6.13;;;2.50;;
49820;SDS011;36893;52.520;13.450;2023-03-01T03:23:29;5.73;;;2.00;;
49820;SDS011;36893;52.520;13.450;2023-03-01T03:33:30;5.40;;;2.13;;
49820;SDS011;36893;52.520;13.450;2023-03-01T03:43:32;5.80;;;2.25;;
49820;SDS011;36893;52.520;13.450;2023-03-01T03:53:35;5.13;;;1.90;;
49820;SDS011;36893;52.520;13.450;2023-03-01T04:03:35;3.53;;;1.77;;
49820;SDS011;36893;52.520;13.450;2023-03-01T04:13:36;4.50;;;2.30;;
49820;SDS011;36893;52.520;13.450;2023-03-01T04:23:37;4.80;;;1.80;;
49820;SDS011;36893;52.520;13.450;2023-03-01T04:33:42;3.88;;;1.67;;
49820;SDS011;36893;52.520;13.450;2023-03-01T04:43:48;4.07;;;1.98;;
49820;SDS011;36893;52.520;13.450;2023-03-01T04:53:49;6.47;;;2.37;;
49820;SDS011;36893;52.520;13.450;2023-03-01T05:03:51;4.30;;;2.07;;
49820;SDS011;36893;52.520;13.450;2023-03-01T05:13:52;5.50;;;1.67;;
49820;SDS011;36893;52.520;13.450;2023-03-01T05:23:54;2.77;;;1.67;;
49820;SDS011;36893;52.520;13.450;2023-03-01T05:33:55;9.07;;;2.47;;
49820;SDS011;36893;52.520;13.450;2023-03-01T05:43:56;3.37;;;1.47;;
49820;SDS011;36893;52.520;13.450;2023-03-01T05:53:57;6.23;;;2.13;;
49820;SDS011;36893;52.520;13.450;2023-03-01T06:03:57;3.40;;;1.90;;
49820;SDS011;36893;52.520;13.450;2023-03-01T06:13:58;4.77;;;1.93;;
49820;SDS011;36893;52.520;13.450;2023-03-01T06:23:58;2.40;;;1.40;;
49820;SDS011;36893;52.520;13.450;2023-03-01T06:33:59;3.73;;;1.60;;
49820;SDS011;36893;52.520;13.450;2023-03-01T06:44:00;2.42;;;1.80;;
49820;SDS011;36893;52.520;13.450;2023-03-01T06:54:00;9.80;;;2.47;;
49820;SDS011;36893;52.520;13.450;2023-03-01T07:04:01;8.00;;;3.80;;
49820;SDS011;36893;52.520;13.450;2023-03-01T07:14:02;4.17;;;2.20;;
49820;SDS011;36893;52.520;13.450;2023-03-01T07:24:03;5.30;;;2.90;;
49820;SDS011;36893;52.520;13.450;2023-03-01T07:34:06;6.10;;;2.67;;
49820;SDS011;36893;52.520;13.450;2023-03-01T07:44:07;7.33;;;3.03;;
49820;SDS011;36893;52.520;13.450;2023-03-01T07:54:07;4.53;;;1.77;;
49820;SDS011;36893;52.520;13.450;2023-03-01T08:04:08;7.60;;;3.23;;
49820;SDS011;36893;52.520;13.450;2023-03-01T08:14:09;8.15;;;2.28;;
49820;SDS011;36893;52.520;13.450;2023-03-01T08:24:10;5.13;;;2.47;;
49820;SDS011;36893;52.520;13.450;2023-03-01T08:34:12;7.03;;;2.27;;
49820;SDS011;36893;52.520;13.450;2023-03-01T08:54:21;5.90;;;2.60;;
49820;SDS011;36893;52.520;13.450;2023-03-01T09:04:22;4.90;;;2.35;;
49820;SDS011;36893;52.520;13.450;2023-03-01T09:14:22;4.53;;;2.20;;
49820;SDS011;36893;52.520;13.450;2023-03-01T09:24:23;7.93;;;2.63;;
49820;SDS011;36893;52.520;13.450;2023-03-01T09:34:25;9.48;;;2.47;;
49820;SDS011;36893;52.520;13.450;2023-03-01T09:44:27;8.77;;;2.63;;
49820;SDS011;36893;52.520;13.450;2023-03-01T09:54:50;7.57;;;3.33;;
49820;SDS011;36893;52.520;13.450;2023-03-01T10:04:57;5.53;;;2.35;;
49820;SDS011;36893;52.520;13.450;2023-03-01T10:15:18;7.18;;;2.20;;
49820;SDS011;36893;52.520;13.450;2023-03-01T10:35:53;5.10;;;1.95;;
49820;SDS011;36893;52.520;13.450;2023-03-01T10:45:53;5.63;;;2.40;;
49820;SDS011;36893;52.520;13.450;2023-03-01T10:56:12;4.83;;;1.97;;
49820;SDS011;36893;52.520;13.450;2023-03-01T11:06:21;5.70;;;2.05;;
49820;SDS011;36893;52.520;13.450;2023-03-01T11:16:29;4.55;;;2.08;;
49820;SDS011;36893;52.520;13.450;2023-03-01T11:26:39;6.25;;;2.50;;
49820;SDS011;36893;52.520;13.450;2023-03-01T11:36:49;6.40;;;2.42;;
49820;SDS011;36893;52.520;13.450;2023-03-01T11:47:01;5.18;;;2.08;;
49820;SDS011;36893;52.520;13.450;2023-03-01T11:57:31;5.75;;;1.85;;
49820;SDS011;36893;52.520;13.450;2023-03-01T12:08:10;4.90;;;2.20;;
49820;SDS011;36893;52.520;13.450;2023-03-01T12:18:35;7.93;;;2.15;;
49820;SDS011;36893;52.520;13.450;2023-03-01T12:39:24;4.82;;;1.85;;
49820;SDS011;36893;52.520;13.450;2023-03-01T12:49:41;5.15;;;1.95;;
49820;SDS011;36893;52.520;13.450;2023-03-01T13:00:03;5.63;;;2.03;;
49820;SDS011;36893;52.520;13.450;2023-03-01T13:10:56;5.90;;;2.35;;
49820;SDS011;36893;52.520;13.450;2023-03-01T13:21:02;3.73;;;1.90;;
49820;SDS011;36893;52.520;13.450;2023-03-01T13:31:05;4.13;;;1.73;;
49820;SDS011;36893;52.520;13.450;2023-03-01T13:51:09;6.50;;;2.17;;
49820;SDS011;36893;52.520;13.450;2023-03-01T14:01:22;8.60;;;1.63;;
49820;SDS011;36893;52.520;13.450;2023-03-01T14:21:46;4.68;;;2.17;;
49820;SDS011;36893;52.520;13.450;2023-03-01T14:31:47;2.22;;;1.25;;
49820;SDS011;36893;52.520;13.450;2023-03-01T14:41:48;4.37;;;1.63;;
49820;SDS011;36893;52.520;13.450;2023-03-01T14:51:56;12.77;;;2.33;;
49820;SDS011;36893;52.520;13.450;2023-03-01T15:02:01;3.33;;;1.33;;
49820;SDS011;36893;52.520;13.450;2023-03-01T15:12:23;7.50;;;1.48;;
49820;SDS011;36893;52.520;13.450;2023-03-01T15:22:29;3.25;;;1.35;;
49820;SDS011;36893;52.520;13.450;2023-03-01T15:32:31;4.93;;;1.73;;
49820;SDS011;36893;52.520;13.450;2023-03-01T15:42:36;8.07;;;1.33;;
49820;SDS011;36893;52.520;13.450;2023-03-01T15:52:41;2.65;;;1.35;;
49820;SDS011;36893;52.520;13.450;2023-03-01T16:02:43;11.18;;;2.08;;
49820;SDS011;36893;52.520;13.450;2023-03-01T16:12:44;1.48;;;1.00;;
49820;SDS011;36893;52.520;13.450;2023-03-01T16:22:47;4.17;;;1.40;;
49820;SDS011;36893;52.520;13.450;2023-03-01T16:32:48;2.63;;;1.23;;
49820;SDS011;36893;52.520;13.450;2023-03-01T16:42:50;3.42;;;1.13;;
49820;SDS011;36893;52.520;13.450;2023-03-01T16:52:50;3.25;;;1.35;;
49820;SDS011;36893;52.520;13.450;2023-03-01T17:02:51;1.37;;;0.80;;
49820;SDS011;36893;52.520;13.450;2023-03-01T17:12:52;3.78;;;1.23;;
49820;SDS011;36893;52.520;13.450;2023-03-01T17:22:53;4.50;;;1.08;;
49820;SDS011;36893;52.520;13.450;2023-03-01T17:32:54;3.80;;;0.90;;
49820;SDS011;36893;52.520;13.450;2023-03-01T17:42:55;5.77;;;1.30;;
49820;SDS011;36893;52.520;13.450;2023-03-01T17:52:56;1.73;;;1.10;;
49820;SDS011;36893;52.520;13.450;2023-03-01T18:02:57;2.90;;;1.55;;
49820;SDS011;36893;52.520;13.450;2023-03-01T18:12:58;2.63;;;1.40;;
49820;SDS011;36893;52.520;13.450;2023-03-01T18:22:58;25.47;;;4.50;;
49820;SDS011;36893;52.520;13.450;2023-03-01T18:32:59;17.00;;;4.73;;
49820;SDS011;36893;52.520;13.450;2023-03-01T18:43:00;13.37;;;4.23;;
49820;SDS011;36893;52.520;13.450;2023-03-01T18:53:00;10.77;;;4.57;;
49820;SDS011;36893;52.520;13.450;2023-03-01T19:03:01;12.17;;;3.63;;
49820;SDS011;36893;52.520;13.450;2023-03-01T19:13:02;13.48;;;3.50;;
49820;SDS011;36893;52.520;13.450;2023-03-01T19:23:03;17.77;;;3.80;;
49820;SDS011;36893;52.520;13.450;2023-03-01T19:33:03;16.87;;;3.93;;
49820;SDS011;36893;52.520;13.450;2023-03-01T19:43:04;7.63;;;2.53;;
49820;SDS011;36893;52.520;13.450;2023-03-01T19:53:05;9.57;;;2.03;;
49820;SDS011;36893;52.520;13.450;2023-03-01T20:03:05;7.63;;;2.20;;
49820;SDS011;36893;52.520;13.450;2023-03-01T20:13:06;5.23;;;2.23;;
49820;SDS011;36893;52.520;13.450;2023-03-01T20:23:07;8.93;;;1.73;;
49820;SDS011;36893;52.520;13.450;2023-03-01T20:33:07;10.23;;;3.00;;
49820;SDS011;36893;52.520;13.450;2023-03-01T20:43:08;7.07;;;2.35;;
49820;SDS011;36893;52.520;13.450;2023-03-01T20:53:09;5.67;;;1.67;;
49820;SDS011;36893;52.520;13.450;2023-03-01T21:03:10;13.00;;;2.20;;
49820;SDS011;36893;52.520;13.450;2023-03-01T21:13:10;4.47;;;1.83;;
49820;SDS011;36893;52.520;13.450;2023-03-01T21:23:11;3.23;;;1.20;;
49820;SDS011;36893;52.520;13.450;2023-03-01T21:33:11;7.17;;;1.87;;
49820;SDS011;36893;52.520;13.450;2023-03-01T21:43:12;4.47;;;1.40;;
49820;SDS011;36893;52.520;13.450;2023-03-01T21:53:13;4.27;;;1.93;;
49820;SDS011;36893;52.520;13.450;2023-03-01T22:03:14;3.33;;;1.43;;
49820;SDS011;36893;52.520;13.450;2023-03-01T22:13:15;6.28;;;1.67;;
49820;SDS011;36893;52.520;13.450;2023-03-01T22:23:16;3.70;;;1.98;;
49820;SDS011;36893;52.520;13.450;2023-03-01T22:33:17;9.10;;;1.50;;
49820;SDS011;36893;52.520;13.450;2023-03-01T22:43:17;5.70;;;1.73;;
49820;SDS011;36893;52.520;13.450;2023-03-01T22:53:18;8.23;;;1.70;;
49820;SDS011;36893;52.520;13.450;2023-03-01T23:03:19;2.23;;;1.00;;
49820;SDS011;36893;52.520;13.450;2023-03-01T23:13:19;3.60;;;1.40;;
49820;SDS011;36893;52.520;13.450;2023-03-01T23:23:20;6.03;;;1.70;;
49820;SDS011;36893;52.520;13.450;2023-03-01T23:33:21;4.73;;;1.67;;
49820;SDS011;36893;52.520;13.450;2023-03-01T23:43:21;3.57;;;1.37;;
49820;SDS011;36893;52.520;13.450;2023-03-01T23:53:22;18.73;;;1.47;;
